Flight Track Log - Related Links

Times and Time Zones

All times are in EDT time to prevent confusion due to time zone crossing. See the SWA1802 flight status page for this flight to view local times or setup timezone preferences in your user account.

Time Position Orientation Groundspeed Altitude Reporting Facility
EDT Latitude Longitude Course Direction KTS MPH feet Rate Location/Type
Thu 06:34:07 PM 41.8000 -87.7000 283° West 214 246 2,500  Level Chicago TRACON
Thu 06:35:07 PM 41.8167 -87.7833 285° West 238 274 3,100 750 Climbing Chicago TRACON
Thu 06:36:07 PM 41.7881 -87.8633 244° Southwest 240 276 4,000 738 Climbing Chicago Center
Thu 06:37:09 PM 41.7772 -87.9569 261° West 258 297 4,600 1,887 Climbing Chicago Center
Thu 06:38:11 PM 41.8147 -88.0439 300° West 273 314 7,900 3,387 Climbing Chicago Center
Thu 06:39:00 PM 41.9309 -88.6513 283° West  Level FlightAware Approximate
Thu 06:39:13 PM 41.8497 -88.1486 294° West 266 306 11,600  Level Chicago Center
Thu 06:40:15 PM 41.8319 -88.2564 258° West 294 338 13,500 1,597 Climbing Chicago Center
Thu 06:41:17 PM 41.8061 -88.3831 255° West 352 405 14,900 1,872 Climbing Chicago Center
Thu 06:42:20 PM 41.7783 -88.5183 255° West 378 435 17,400 2,112 Climbing Chicago Center
Thu 06:43:22 PM 41.7494 -88.6558 254° West 385 443 19,300 2,177 Climbing Chicago Center
Thu 06:44:24 PM 41.7142 -88.8247 254° West 396 456 21,900 1,935 Climbing Chicago Center
Thu 06:45:26 PM 41.6833 -88.9706 254° West 409 471 23,300 1,403 Climbing Chicago Center
Thu 06:46:28 PM 41.6517 -89.1231 255° West 425 489 24,800 1,452 Climbing Chicago Center
Thu 06:47:30 PM 41.6186 -89.2808 254° West 441 507 26,300 1,548 Climbing Chicago Center
Thu 06:48:32 PM 41.5792 -89.4700 254° West 445 512 28,000 1,306 Climbing Chicago Center
Thu 06:49:34 PM 41.5461 -89.6194 254° West 452 520 29,000 1,016 Climbing Chicago Center
Thu 06:50:36 PM 41.5114 -89.7844 254° West 460 529 30,100 1,016 Climbing Chicago Center
Thu 06:51:38 PM 41.4744 -89.9511 254° West 468 539 31,100 1,248 Climbing Chicago Center
Thu 06:52:41 PM 41.4308 -90.1525 254° West 474 545 32,700 1,488 Climbing Chicago Center
Thu 06:53:43 PM 41.4017 -90.3217 257° West 473 544 34,200 1,403 Climbing Chicago Center
Thu 06:54:45 PM 41.3767 -90.4831 258° West 458 527 35,600 871 Climbing Chicago Center
Thu 06:55:47 PM 41.3475 -90.6433 256° West 450 518 36,000 194 Climbing Chicago Center
Thu 06:56:49 PM 41.3256 -90.8022 260° West 443 510 36,000  Level Chicago Center
Thu 06:57:51 PM 41.3111 -90.9619 263° West 438 504 36,000  Level Chicago Center
Thu 06:58:56 PM 41.2925 -91.1514 263° West 434 499 36,000  Level Chicago Center
Thu 06:59:58 PM 41.2769 -91.3097 263° West 433 498 36,000  Level Chicago Center
Thu 07:01:00 PM 41.2619 -91.4644 263° West 433 498 36,000  Level Chicago Center
Thu 07:02:03 PM 41.2444 -91.6364 262° West 432 497 36,000  Level Chicago Center
Thu 07:03:05 PM 41.2281 -91.7947 262° West 435 501 36,000  Level Chicago Center
Thu 07:04:07 PM 41.2092 -91.9844 263° West 436 502 36,000  Level Chicago Center
Thu 07:05:09 PM 41.1939 -92.1433 263° West 439 505 36,000  Level Chicago Center
Thu 07:06:11 PM 41.1769 -92.3014 262° West 439 505 36,000  Level Chicago Center
Thu 07:07:13 PM 41.1583 -92.4578 261° West 437 503 36,000  Level Chicago Center
Thu 07:08:15 PM 41.1400 -92.6153 261° West 438 504 36,000  Level Chicago Center
Thu 07:09:17 PM 41.1197 -92.8025 262° West 434 499 36,000  Level Chicago Center
Thu 07:10:19 PM 41.1033 -92.9594 262° West 435 501 36,000  Level Chicago Center
Thu 07:11:21 PM 41.0875 -93.1164 262° West 434 499 36,000  Level Chicago Center
Thu 07:11:56 PM 41.0786 -93.2078 263° West 426 490 36,000  Level Minneapolis Center
Thu 07:12:58 PM 41.0631 -93.3650 263° West 428 493 36,000  Level Minneapolis Center
Thu 07:14:01 PM 41.0317 -93.5514 257° West 433 498 36,000  Level Minneapolis Center
Thu 07:15:03 PM 41.0061 -93.7014 257° West 430 495 36,000  Level Minneapolis Center
Thu 07:16:05 PM 40.9808 -93.8550 258° West 433 498 36,000  Level Minneapolis Center
Thu 07:17:07 PM 40.9536 -94.0100 257° West 436 502 36,000  Level Minneapolis Center
Thu 07:18:09 PM 40.9267 -94.1650 257° West 437 503 36,000  Level Minneapolis Center
Thu 07:19:11 PM 40.8933 -94.3506 257° West 438 504 36,000  Level Minneapolis Center
Thu 07:20:13 PM 40.8658 -94.5056 257° West 438 504 36,000  Level Minneapolis Center
Thu 07:21:15 PM 40.8347 -94.6744 256° West 439 505 36,000  Level Minneapolis Center
Thu 07:22:30 PM 40.8006 -94.8622 257° West 437 503 36,000  Level Minneapolis Center
Thu 07:23:32 PM 40.7719 -95.0178 256° West 436 502 36,000  Level Minneapolis Center
Thu 07:24:34 PM 40.7436 -95.1717 256° West 432 497 36,000  Level Minneapolis Center
Thu 07:25:36 PM 40.7161 -95.3256 257° West 431 496 36,000  Level Minneapolis Center
Thu 07:26:38 PM 40.6881 -95.4783 256° West 428 493 36,000  Level Minneapolis Center
Thu 07:27:40 PM 40.6536 -95.6608 256° West 426 490 36,000  Level Minneapolis Center
Thu 07:28:42 PM 40.6239 -95.8156 256° West 430 495 36,000  Level Minneapolis Center
Thu 07:29:44 PM 40.5950 -95.9703 256° West 433 498 36,000  Level Minneapolis Center
Thu 07:30:58 PM 40.5653 -96.1247 256° West 435 501 36,000  Level Minneapolis Center
Thu 07:32:01 PM 40.5286 -96.3108 256° West 436 502 36,000  Level Minneapolis Center
Thu 07:33:03 PM 40.4986 -96.4675 256° West 438 504 36,000  Level Minneapolis Center
Thu 07:34:05 PM 40.4675 -96.6219 255° West 437 503 36,000  Level Minneapolis Center
Thu 07:35:07 PM 40.4314 -96.8069 256° West 436 502 36,000  Level Minneapolis Center
Thu 07:36:09 PM 40.4000 -96.9594 255° West 434 499 36,000  Level Minneapolis Center
Thu 07:37:11 PM 40.3697 -97.1136 256° West 435 501 36,000  Level Minneapolis Center
Thu 07:38:13 PM 40.3381 -97.2661 255° West 434 499 36,000  Level Minneapolis Center
Thu 07:39:15 PM 40.3033 -97.4336 255° West 437 503 36,000  Level Minneapolis Center
Thu 07:40:17 PM 40.2725 -97.5883 255° West 438 504 36,000  Level Minneapolis Center
Thu 07:41:19 PM 40.2397 -97.7428 255° West 439 505 36,000  Level Minneapolis Center
Thu 07:42:21 PM 40.2072 -97.8994 255° West 442 509 36,000  Level Minneapolis Center
Thu 07:43:23 PM 40.1733 -98.0567 254° West 447 514 36,000  Level Minneapolis Center
Thu 07:44:25 PM 40.1342 -98.2417 255° West 441 507 36,000  Level Minneapolis Center
Thu 07:45:27 PM 40.1006 -98.3994 254° West 446 513 36,000  Level Minneapolis Center
Thu 07:46:29 PM 40.0681 -98.5542 255° West 443 510 36,000  Level Minneapolis Center
Thu 07:47:43 PM 40.0333 -98.7089 254° West 443 510 36,000  Level Minneapolis Center
Thu 07:48:46 PM 40.0097 -98.8997 261° West 447 514 36,000  Level Minneapolis Center
Thu 07:49:48 PM 39.9989 -99.0603 265° West 443 510 36,000  Level Minneapolis Center
Thu 07:51:02 PM 39.9872 -99.2200 265° West 443 510 36,000  Level Minneapolis Center
Thu 07:52:04 PM 39.9722 -99.4411 265° West 439 505 36,000  Level Minneapolis Center
Thu 07:53:06 PM 39.9639 -99.6000 266° West 439 505 36,000  Level Minneapolis Center
Thu 07:54:08 PM 39.9536 -99.7586 265° West 439 505 36,000  Level Minneapolis Center
Thu 07:55:10 PM 39.9475 -99.8856 266° West 438 504 36,000  Level Minneapolis Center
Thu 07:56:13 PM 39.9378 -100.0753 266° West 437 503 36,000  Level Minneapolis Center
Thu 07:57:15 PM 39.9339 -100.2325 268° West 435 501 36,000  Level Minneapolis Center
Thu 07:58:17 PM 39.9303 -100.4219 269° West 434 499 36,000  Level Minneapolis Center
Thu 07:59:32 PM 39.9264 -100.6067 268° West 436 502 36,000  Level Denver Center
Thu 08:00:35 PM 39.9242 -100.7561 269° West 432 497 36,000  Level Denver Center
Thu 08:01:36 PM 39.9228 -100.9319 269° West 433 498 36,000  Level Denver Center
Thu 08:02:38 PM 39.9225 -101.0817 270° West 432 497 36,000  Level Denver Center
Thu 08:03:40 PM 39.9181 -101.2536 268° West 427 491 36,000  Level Denver Center
Thu 08:04:42 PM 39.8822 -101.3936 252° West 428 493 36,000  Level Denver Center
Thu 08:05:44 PM 39.8364 -101.5528 249° West 423 487 36,000  Level Denver Center
Thu 08:06:46 PM 39.7972 -101.6892 250° West 420 483 36,000  Level Denver Center
Thu 08:07:48 PM 39.7508 -101.8519 250° West 429 494 36,000  Level Denver Center
Thu 08:08:50 PM 39.7111 -101.9928 250° West 433 498 36,000  Level Denver Center
Thu 08:09:52 PM 39.6650 -102.1558 250° West 431 496 36,000  Level Denver Center
Thu 08:10:54 PM 39.6233 -102.2956 249° West 433 498 36,000  Level Denver Center
Thu 08:11:56 PM 39.5806 -102.4472 250° West 432 497 36,000  Level Denver Center
Thu 08:12:58 PM 39.5381 -102.5897 249° West 426 490 36,000  Level Denver Center
Thu 08:14:00 PM 39.4975 -102.7308 250° West 421 484 36,000  Level Denver Center
Thu 08:15:03 PM 39.4536 -102.8736 248° West 425 489 36,000  Level Denver Center
Thu 08:16:05 PM 39.4042 -103.0433 249° West 422 486 36,000  Level Denver Center
Thu 08:17:07 PM 39.3603 -103.1847 248° West 423 487 36,000  Level Denver Center
Thu 08:18:09 PM 39.3150 -103.3264 248° West 425 489 36,000  Level Denver Center
Thu 08:19:11 PM 39.2711 -103.4689 248° West 427 491 36,000 339 Level Denver Center
Thu 08:20:13 PM 39.2300 -103.6117 250° West 425 489 36,700 532 Climbing Denver Center
Thu 08:21:15 PM 39.1861 -103.7511 248° West 421 484 37,100 629 Climbing Denver Center
Thu 08:22:17 PM 39.1433 -103.8892 248° West 416 479 38,000 435 Climbing Denver Center
Thu 08:23:19 PM 39.0911 -104.0564 248° West 417 480 38,000  Level Denver Center
Thu 08:24:21 PM 39.0494 -104.1936 249° West 412 474 38,000  Level Denver Center
Thu 08:25:23 PM 39.0056 -104.3314 248° West 414 476 38,000  Level Denver Center
Thu 08:26:25 PM 38.9633 -104.4675 248° West 411 473 38,000  Level Denver Center
Thu 08:27:27 PM 38.9194 -104.6061 248° West 417 480 38,000  Level Denver Center
Thu 08:28:29 PM 38.8783 -104.7381 248° West 402 463 38,000  Level Denver Center
Thu 08:29:31 PM 38.8292 -104.8928 248° West 391 450 38,000  Level Denver Center
Thu 08:30:33 PM 38.7878 -105.0194 247° West 387 445 38,000  Level Denver Center
Thu 08:31:35 PM 38.7469 -105.1483 248° West 388 447 38,000  Level Denver Center
Thu 08:32:37 PM 38.7047 -105.2817 248° West 402 463 38,000  Level Denver Center
Thu 08:33:39 PM 38.6611 -105.4133 247° West 404 465 38,000  Level Denver Center
Thu 08:34:42 PM 38.6178 -105.5469 247° West 405 466 38,000  Level Denver Center
Thu 08:35:44 PM 38.5736 -105.6797 247° West 406 467 38,000  Level Denver Center
Thu 08:36:46 PM 38.5231 -105.8356 248° West 407 468 38,000  Level Denver Center
Thu 08:37:48 PM 38.4806 -105.9647 247° West 412 474 38,000  Level Denver Center
Thu 08:38:50 PM 38.4314 -106.1133 247° West 408 470 38,000  Level Denver Center
Thu 08:39:52 PM 38.3886 -106.2378 246° West 408 470 38,000  Level Denver Center
Thu 08:40:54 PM 38.3447 -106.3703 247° West 406 467 38,000  Level Denver Center
Thu 08:41:56 PM 38.2931 -106.5222 247° West 405 466 38,000  Level Denver Center
Thu 08:42:58 PM 38.2500 -106.6494 247° West 405 466 38,000  Level Denver Center
Thu 08:44:00 PM 38.1994 -106.7972 247° West 408 470 38,000  Level Denver Center
Thu 08:45:02 PM 38.1542 -106.9283 246° West 411 473 38,000  Level Denver Center
Thu 08:46:04 PM 38.1089 -107.0611 247° West 409 471 38,000  Level Denver Center
Thu 08:47:06 PM 38.0617 -107.2019 247° West 408 470 38,000  Level Denver Center
Thu 08:48:08 PM 38.0094 -107.3497 246° West 409 471 38,000  Level Denver Center
Thu 08:49:10 PM 37.9650 -107.4758 246° West 411 473 38,000  Level Denver Center
Thu 08:50:12 PM 37.9222 -107.6033 247° West 411 473 38,000  Level Denver Center
Thu 08:51:14 PM 37.8689 -107.7511 245° Southwest 413 475 38,000  Level Denver Center
Thu 08:52:17 PM 37.8250 -107.8783 246° West 412 474 38,000  Level Denver Center
Thu 08:53:19 PM 37.7722 -108.0267 246° West 415 478 38,000  Level Denver Center
Thu 08:54:21 PM 37.7278 -108.1542 246° West 415 478 38,000  Level Denver Center
Thu 08:55:23 PM 37.6739 -108.3033 246° West 417 480 38,000  Level Denver Center
Thu 08:56:25 PM 37.6275 -108.4297 245° Southwest 416 479 38,000  Level Denver Center
Thu 08:57:27 PM 37.5744 -108.5808 246° West 421 484 38,000  Level Denver Center
Thu 08:58:29 PM 37.5289 -108.7053 245° Southwest 414 476 38,000  Level Denver Center
Thu 08:59:31 PM 37.4750 -108.8486 245° Southwest 409 471 38,000  Level Denver Center
Thu 09:00:33 PM 37.4297 -108.9736 246° West 410 472 38,000  Level Denver Center
Thu 09:01:35 PM 37.3761 -109.1208 245° Southwest 415 478 38,000  Level Denver Center
Thu 09:02:37 PM 37.3297 -109.2447 245° Southwest 412 474 38,000  Level Denver Center
Thu 09:03:39 PM 37.2758 -109.3906 245° Southwest 412 474 38,000  Level Denver Center
Thu 09:04:41 PM 37.2303 -109.5144 245° Southwest 411 473 38,000  Level Denver Center
Thu 09:05:43 PM 37.1747 -109.6614 245° Southwest 416 479 38,000  Level Denver Center
Thu 09:06:45 PM 37.1286 -109.7853 245° Southwest 412 474 38,000  Level Denver Center
Thu 09:07:47 PM 37.0733 -109.9297 244° Southwest 414 476 38,000  Level Denver Center
Thu 09:08:49 PM 37.0258 -110.0542 244° Southwest 416 479 38,000  Level Denver Center
Thu 09:09:52 PM 36.9708 -110.1992 245° Southwest 415 478 38,000  Level Denver Center
Thu 09:10:54 PM 36.9217 -110.3286 245° Southwest 413 475 38,000  Level Denver Center
Thu 09:11:56 PM 36.8725 -110.4561 244° Southwest 409 471 38,000  Level Denver Center
Thu 09:12:58 PM 36.8233 -110.5833 244° Southwest 408 470 38,000  Level Denver Center
Thu 09:14:00 PM 36.7731 -110.7119 244° Southwest 411 473 38,000  Level Denver Center
Thu 09:15:02 PM 36.7231 -110.8408 244° Southwest 413 475 38,000  Level Denver Center
Thu 09:16:04 PM 36.6628 -110.9958 244° Southwest 415 478 38,000  Level Denver Center
Thu 09:17:06 PM 36.6125 -111.1256 244° Southwest 415 478 38,000  Level Denver Center
Thu 09:18:08 PM 36.5619 -111.2542 244° Southwest 415 478 38,000  Level Denver Center
Thu 09:19:10 PM 36.5133 -111.3828 245° Southwest 412 474 38,000  Level Denver Center
Thu 09:20:12 PM 36.4628 -111.5097 244° Southwest 410 472 38,000  Level Denver Center
Thu 09:21:14 PM 36.4136 -111.6381 245° Southwest 410 472 38,000  Level Denver Center
Thu 09:21:57 PM 36.3744 -111.7403 245° Southwest 409 471 38,000  Level Los Angeles Center
Thu 09:22:59 PM 36.3256 -111.8656 244° Southwest 405 466 38,000  Level Los Angeles Center
Thu 09:24:01 PM 36.2753 -111.9911 244° Southwest 406 467 38,000  Level Los Angeles Center
Thu 09:25:03 PM 36.2264 -112.1175 244° Southwest 406 467 38,000  Level Los Angeles Center
Thu 09:26:05 PM 36.1717 -112.2569 244° Southwest 417 480 38,000  Level Los Angeles Center
Thu 09:27:07 PM 36.1144 -112.4019 244° Southwest 418 481 38,000  Level Los Angeles Center
Thu 09:28:09 PM 36.0628 -112.5308 244° Southwest 418 481 38,000  Level Los Angeles Center
Thu 09:29:10 PM 36.0225 -112.6331 244° Southwest 415 478 38,000  Level Los Angeles Center
Thu 09:30:13 PM 35.9611 -112.7864 244° Southwest 415 478 38,000  Level Los Angeles Center
Thu 09:31:15 PM 35.9083 -112.9183 244° Southwest 417 480 38,000  Level Los Angeles Center
Thu 09:32:17 PM 35.8586 -113.0433 244° Southwest 414 476 38,000  Level Los Angeles Center
Thu 09:33:19 PM 35.8075 -113.1669 243° Southwest 412 474 38,000  Level Los Angeles Center
Thu 09:34:20 PM 35.7461 -113.3172 243° Southwest 414 476 38,000  Level Los Angeles Center
Thu 09:35:22 PM 35.6953 -113.4436 244° Southwest 417 480 38,000  Level Los Angeles Center
Thu 09:36:24 PM 35.6433 -113.5706 243° Southwest 420 483 38,000  Level Los Angeles Center
Thu 09:37:26 PM 35.5908 -113.6978 243° Southwest 422 486 38,000  Level Los Angeles Center
Thu 09:38:28 PM 35.5389 -113.8222 243° Southwest 416 479 38,000  Level Los Angeles Center
Thu 09:39:30 PM 35.4769 -113.9717 243° Southwest 414 476 38,000  Level Los Angeles Center
Thu 09:40:32 PM 35.4272 -114.0903 243° Southwest 423 487 38,000  Level Los Angeles Center
Thu 09:41:34 PM 35.3739 -114.2178 243° Southwest 421 484 38,000  Level Los Angeles Center
Thu 09:42:36 PM 35.3097 -114.3722 243° Southwest 422 486 38,000  Level Los Angeles Center
Thu 09:43:38 PM 35.2550 -114.4994 242° Southwest 422 486 38,000  Level Los Angeles Center
Thu 09:44:40 PM 35.2011 -114.6264 243° Southwest 421 484 38,000  Level Los Angeles Center
Thu 09:45:42 PM 35.1478 -114.7514 242° Southwest 415 478 38,000  Level Los Angeles Center
Thu 09:46:44 PM 35.0947 -114.8758 243° Southwest 412 474 38,000  Level Los Angeles Center
Thu 09:47:45 PM 35.0411 -115.0008 242° Southwest 413 475 38,000  Level Los Angeles Center
Thu 09:48:47 PM 34.9878 -115.1256 242° Southwest 413 475 38,000  Level Los Angeles Center
Thu 09:50:01 PM 34.9228 -115.2753 242° Southwest 415 478 38,000  Level Los Angeles Center
Thu 09:51:03 PM 34.8586 -115.4236 242° Southwest 414 476 38,000  Level Los Angeles Center
Thu 09:52:05 PM 34.8047 -115.5475 242° Southwest 413 475 38,000  Level Los Angeles Center
Thu 09:53:07 PM 34.7494 -115.6736 242° Southwest 412 474 38,000  Level Los Angeles Center
Thu 09:54:09 PM 34.6964 -115.7967 242° Southwest 412 474 38,000  Level Los Angeles Center
Thu 09:55:11 PM 34.6422 -115.9172 241° Southwest 409 471 38,000  Level Los Angeles Center
Thu 09:56:12 PM 34.5858 -116.0406 241° Southwest 412 474 38,000 -439 Level Los Angeles Center
Thu 09:57:14 PM 34.5311 -116.1628 242° Southwest 413 475 37,100 -968 Descending Los Angeles Center
Thu 09:58:16 PM 34.4825 -116.2819 244° Southwest 405 466 36,000 -2,226 Descending Los Angeles Center
Thu 09:59:18 PM 34.4153 -116.4281 241° Southwest 411 473 32,500 -3,290 Descending Los Angeles Center
Thu 10:00:20 PM 34.3589 -116.5536 241° Southwest 420 483 29,200 -2,634 Descending Los Angeles Center
Thu 10:01:21 PM 34.3028 -116.6783 241° Southwest 423 487 27,100 -2,146 Descending Los Angeles Center
Thu 10:02:23 PM 34.2483 -116.7992 241° Southwest 413 475 24,800 -2,226 Descending Los Angeles Center
Thu 10:03:25 PM 34.1956 -116.9153 241° Southwest 403 464 22,500 -2,129 Descending Los Angeles Center
Thu 10:04:27 PM 34.1442 -117.0289 241° Southwest 392 451 20,400 -1,902 Descending Los Angeles Center
Thu 10:05:28 PM 34.0883 -117.1522 241° Southwest 371 427 18,600 -1,415 Descending Los Angeles Center
Thu 10:06:30 PM 34.0486 -117.2489 244° Southwest 332 382 17,500 -1,355 Descending Los Angeles Center
Thu 10:07:32 PM 34.0386 -117.3497 263° West 307 353 15,800 -1,790 Descending Los Angeles Center
Thu 10:08:34 PM 34.0297 -117.4511 264° West 306 352 13,800 -1,707 Descending Los Angeles Center
Thu 10:09:35 PM 34.0336 -117.5481 273° West 295 339 12,300 -1,463 Descending Los Angeles Center
Thu 10:10:37 PM 34.0269 -117.6447 265° West 290 334 10,800 -1,403 Descending Los Angeles Center
Thu 10:11:39 PM 34.0167 -117.7567 264° West 282 325 9,400 -1,073 Descending Los Angeles Center
Thu 10:12:40 PM 34.0092 -117.8417 264° West 264 304 8,600 -1,024 Descending Los Angeles Center
Thu 10:13:42 PM 34.0008 -117.9219 263° West 248 285 7,300 -1,227 Descending Los Angeles Center
Thu 10:14:52 PM 33.9833 -118.0167 257° West 244 281 5,900 -1,108 Descending Southern California TRACON
Thu 10:15:52 PM 33.9833 -118.1000 270° West 238 274 4,900 -1,034 Descending Southern California TRACON
Thu 10:16:48 PM 33.9764 -118.1647 263° West 243 280 3,900 -1,169 Descending Los Angeles Center
Thu 10:17:50 PM 33.9689 -118.2456 264° West 217 250 2,600 -1,065 Descending Los Angeles Center
Thu 10:18:52 PM 33.9628 -118.3039 263° West 188 216 1,700 -823 Descending Los Angeles Center
Thu 10:19:54 PM 33.9575 -118.3564 263° West 172 198 900 -774 Descending Los Angeles Center
Thu 10:20:56 PM 33.9528 -118.4047 263° West 157 181 100 -774 Descending Los Angeles Center
Thu 10:22:00 PM 33.9425 -118.4081 259° West  Level Estimated
Thu 10:29:00 PM 33.9425 -118.4081 259° West  Level Estimated

Login

Don't have an account? Register now (free) for customized features, flight alerts, and more!